createdAt,value
2023-05-10T00:00:15.730Z,87.09
2023-05-10T00:02:43.680Z,87.23
2023-05-10T00:05:11.488Z,86.87
2023-05-10T00:07:39.239Z,87.76
2023-05-10T00:10:07.682Z,87.10
2023-05-10T00:12:35.421Z,87.40
2023-05-10T00:15:03.826Z,87.02
2023-05-10T00:17:33.054Z,87.63
2023-05-10T00:20:01.402Z,86.87
2023-05-10T00:22:29.155Z,86.86
2023-05-10T00:24:56.920Z,87.76
2023-05-10T00:27:24.659Z,86.91
2023-05-10T00:29:52.557Z,87.49
2023-05-10T00:32:20.482Z,87.35
2023-05-10T00:34:49.631Z,87.71
2023-05-10T00:37:17.364Z,87.88
2023-05-10T00:39:45.086Z,87.32
2023-05-10T00:42:12.842Z,87.66
2023-05-10T00:44:40.615Z,87.60
2023-05-10T00:47:08.456Z,87.42
2023-05-10T00:49:36.746Z,87.28
2023-05-10T00:52:06.145Z,87.35
2023-05-10T00:54:34.074Z,87.51
2023-05-10T00:57:02.337Z,87.77
2023-05-10T00:59:30.791Z,87.38
2023-05-10T01:01:59.722Z,87.55
2023-05-10T01:04:27.450Z,88.21
2023-05-10T01:06:55.501Z,87.87
2023-05-10T01:13:25.995Z,88.08
2023-05-10T01:15:53.978Z,87.51
2023-05-10T01:18:22.364Z,88.11
2023-05-10T01:20:56.220Z,87.41
2023-05-10T01:23:45.215Z,88.07
2023-05-10T01:26:27.264Z,87.51
2023-05-10T01:29:17.297Z,87.80
2023-05-10T01:32:06.802Z,87.17
2023-05-10T01:34:38.024Z,87.71
2023-05-10T01:37:10.030Z,87.33
2023-05-10T01:39:44.816Z,87.28
2023-05-10T01:42:13.669Z,87.44
2023-05-10T01:44:45.254Z,87.85
2023-05-10T01:47:17.072Z,87.77
2023-05-10T01:49:48.396Z,87.75
2023-05-10T01:52:20.240Z,87.15
2023-05-10T01:54:52.471Z,87.39
2023-05-10T01:57:22.097Z,88.09
2023-05-10T01:59:51.938Z,88.31
2023-05-10T02:02:22.559Z,87.78
2023-05-10T02:04:51.715Z,87.68
2023-05-10T02:07:19.271Z,88.25
2023-05-10T02:09:49.017Z,87.51
2023-05-10T02:12:17.741Z,88.08
2023-05-10T02:14:46.425Z,87.67
2023-05-10T02:17:14.459Z,87.85
2023-05-10T02:19:44.263Z,87.76
2023-05-10T02:22:12.364Z,87.63
2023-05-10T02:24:40.851Z,87.99
2023-05-10T02:27:09.887Z,88.02
2023-05-10T02:29:38.679Z,88.45
2023-05-10T02:32:07.104Z,87.82
2023-05-10T02:34:35.359Z,87.95
2023-05-10T02:37:04.810Z,87.90
2023-05-10T02:39:33.949Z,88.07
2023-05-10T02:42:01.479Z,87.97
2023-05-10T02:44:29.853Z,87.66
2023-05-10T02:46:57.982Z,87.64
2023-05-10T02:49:25.739Z,88.22
2023-05-10T02:51:57.742Z,88.12
2023-05-10T02:54:35.671Z,88.34
2023-05-10T02:57:06.529Z,88.20
2023-05-10T02:59:34.679Z,88.25
2023-05-10T03:02:03.114Z,87.91
2023-05-10T03:04:30.890Z,88.41
2023-05-10T03:06:58.799Z,88.26
2023-05-10T03:09:28.183Z,88.34
2023-05-10T03:12:02.662Z,88.00
2023-05-10T03:14:40.827Z,87.80
2023-05-10T03:17:12.621Z,88.08
2023-05-10T03:19:46.008Z,88.49
2023-05-10T03:22:15.291Z,88.19
2023-05-10T03:24:44.423Z,87.92
2023-05-10T03:27:12.068Z,88.57
2023-05-10T03:29:40.504Z,88.43
2023-05-10T03:32:08.272Z,88.26
2023-05-10T03:34:37.255Z,88.42
2023-05-10T03:37:04.955Z,88.42
2023-05-10T03:39:32.649Z,87.83
2023-05-10T03:42:01.806Z,88.10
2023-05-10T03:44:29.322Z,88.60
2023-05-10T03:46:57.965Z,88.10
2023-05-10T03:49:25.838Z,88.10
2023-05-10T03:51:53.600Z,88.35
2023-05-10T03:54:21.360Z,87.89
2023-05-10T03:56:49.446Z,88.39
2023-05-10T03:59:18.598Z,88.43
2023-05-10T04:01:46.148Z,88.19
2023-05-10T04:04:14.037Z,88.51
2023-05-10T04:06:41.853Z,88.22
2023-05-10T04:09:10.164Z,88.42
2023-05-10T04:11:37.901Z,87.87
2023-05-10T04:14:05.599Z,88.62
2023-05-10T04:16:34.805Z,88.61
2023-05-10T04:19:02.601Z,88.02
2023-05-10T04:21:30.385Z,87.72
2023-05-10T04:23:58.118Z,88.17
2023-05-10T04:26:26.045Z,88.30
2023-05-10T04:28:53.781Z,87.96
2023-05-10T04:31:21.603Z,88.00
2023-05-10T04:33:50.916Z,88.32
2023-05-10T04:36:18.667Z,87.89
2023-05-10T04:38:46.476Z,88.57
2023-05-10T04:41:14.400Z,87.60
2023-05-10T04:43:42.124Z,88.32
2023-05-10T04:46:09.911Z,87.68
2023-05-10T04:48:37.621Z,88.53
2023-05-10T04:51:07.539Z,88.34
2023-05-10T04:53:35.359Z,88.34
2023-05-10T04:56:03.156Z,87.86
2023-05-10T04:58:30.906Z,88.39
2023-05-10T05:00:58.658Z,87.73
2023-05-10T05:03:26.536Z,88.43
2023-05-10T05:05:54.299Z,87.91
2023-05-10T05:08:23.818Z,88.34
2023-05-10T05:10:51.737Z,87.95
2023-05-10T05:13:19.635Z,88.15
2023-05-10T05:15:47.434Z,88.11
2023-05-10T05:18:15.199Z,87.55
2023-05-10T05:20:42.939Z,88.35
2023-05-10T05:23:10.653Z,87.85
2023-05-10T05:25:39.898Z,87.66
2023-05-10T05:28:07.492Z,87.74
2023-05-10T05:30:35.516Z,88.26
2023-05-10T05:33:03.315Z,87.62
2023-05-10T05:35:32.187Z,87.98
2023-05-10T05:37:59.911Z,87.48
2023-05-10T05:40:27.833Z,87.72
2023-05-10T05:42:56.961Z,87.60
2023-05-10T05:45:24.508Z,86.85
2023-05-10T05:47:52.442Z,87.11
2023-05-10T05:50:20.405Z,86.59
2023-05-10T05:52:48.126Z,86.78
2023-05-10T05:55:16.293Z,86.78
2023-05-10T05:57:44.133Z,86.59
2023-05-10T06:00:14.401Z,86.47
2023-05-10T06:02:45.505Z,87.09
2023-05-10T06:05:15.105Z,87.31
2023-05-10T06:07:43.872Z,87.23
2023-05-10T06:10:11.849Z,86.66
2023-05-10T06:12:39.591Z,86.90
2023-05-10T06:15:08.311Z,86.55
2023-05-10T06:17:37.446Z,87.06
2023-05-10T06:20:05.783Z,86.53
2023-05-10T06:22:33.556Z,86.95
2023-05-10T06:25:01.396Z,85.90
2023-05-10T06:27:29.152Z,85.86
2023-05-10T06:30:09.194Z,85.04
2023-05-10T06:32:41.945Z,84.50
2023-05-10T06:35:10.754Z,85.23
2023-05-10T06:37:38.547Z,84.78
2023-05-10T06:40:07.653Z,85.42
2023-05-10T06:42:35.205Z,84.61
2023-05-10T06:45:03.252Z,85.63
2023-05-10T06:47:31.008Z,84.98
2023-05-10T06:50:00.155Z,85.31
2023-05-10T06:52:27.925Z,84.52
2023-05-10T06:54:55.696Z,84.63
2023-05-10T06:57:31.142Z,84.79
2023-05-10T07:00:00.080Z,85.26
2023-05-10T07:02:28.721Z,85.16
2023-05-10T07:04:56.535Z,84.86
2023-05-10T07:07:25.645Z,84.65
2023-05-10T07:09:53.161Z,83.97
2023-05-10T07:12:20.999Z,84.63
2023-05-10T07:14:48.773Z,83.92
2023-05-10T07:17:16.700Z,83.49
2023-05-10T07:19:44.540Z,83.10
2023-05-10T07:22:12.502Z,82.85
2023-05-10T07:24:41.731Z,82.28
2023-05-10T07:27:10.057Z,82.48
2023-05-10T07:29:38.431Z,82.84
2023-05-10T07:32:06.955Z,82.48
2023-05-10T07:34:35.024Z,83.14
2023-05-10T07:37:03.276Z,82.84
2023-05-10T07:39:31.070Z,82.30
2023-05-10T07:42:00.191Z,82.77
2023-05-10T07:44:27.941Z,82.86
2023-05-10T07:46:56.564Z,83.12
2023-05-10T07:49:25.616Z,82.98
2023-05-10T07:51:53.159Z,82.45
2023-05-10T07:54:20.889Z,82.33
2023-05-10T07:56:49.220Z,82.72
2023-05-10T07:59:19.290Z,81.92
2023-05-10T08:01:47.294Z,81.87
2023-05-10T08:04:15.085Z,81.83
2023-05-10T08:06:43.034Z,81.38
2023-05-10T08:09:11.913Z,81.79
2023-05-10T08:11:39.744Z,81.75
2023-05-10T08:14:07.469Z,81.30
2023-05-10T08:16:36.615Z,80.52
2023-05-10T08:19:04.526Z,81.29
2023-05-10T08:21:32.692Z,80.64
2023-05-10T08:24:00.431Z,80.67
2023-05-10T08:26:28.245Z,79.26
2023-05-10T08:28:55.989Z,78.76
2023-05-10T08:31:23.729Z,78.59
2023-05-10T08:33:53.641Z,77.46
2023-05-10T08:36:22.793Z,77.06
2023-05-10T08:38:52.588Z,75.51
2023-05-10T08:41:22.794Z,74.58
2023-05-10T08:43:51.824Z,73.24
2023-05-10T08:46:21.153Z,72.56
2023-05-10T08:48:50.185Z,73.33
2023-05-10T08:51:20.641Z,73.54
2023-05-10T08:53:48.504Z,71.25
2023-05-10T08:56:18.764Z,71.98
2023-05-10T08:58:46.753Z,72.67
2023-05-10T09:01:15.099Z,71.57
2023-05-10T09:03:43.196Z,72.16
2023-05-10T09:06:11.263Z,71.38
2023-05-10T09:08:40.487Z,71.72
2023-05-10T09:11:08.420Z,71.10
2023-05-10T09:13:37.714Z,71.74
2023-05-10T09:16:13.923Z,72.57
2023-05-10T09:18:50.513Z,72.35
2023-05-10T09:21:18.449Z,71.30
2023-05-10T09:23:48.542Z,72.40
2023-05-10T09:26:17.061Z,72.25
2023-05-10T09:28:55.079Z,71.48
2023-05-10T09:31:22.878Z,72.44
2023-05-10T09:33:51.479Z,72.63
2023-05-10T09:36:19.530Z,72.45
2023-05-10T09:38:50.014Z,72.83
2023-05-10T09:41:19.120Z,72.91
2023-05-10T09:43:46.877Z,72.73
2023-05-10T09:46:14.681Z,72.17
2023-05-10T09:48:44.922Z,72.39
2023-05-10T09:51:12.661Z,73.01
2023-05-10T09:53:40.432Z,73.30
2023-05-10T09:56:09.521Z,73.43
2023-05-10T09:58:40.015Z,73.43
2023-05-10T10:01:13.164Z,72.96
2023-05-10T10:03:44.581Z,72.91
2023-05-10T10:06:26.478Z,73.63
2023-05-10T10:08:58.722Z,73.81
2023-05-10T10:11:27.655Z,74.35
2023-05-10T10:13:55.491Z,74.04
2023-05-10T10:16:23.854Z,73.89
2023-05-10T10:18:52.035Z,74.14
2023-05-10T10:21:20.107Z,74.10
2023-05-10T10:23:48.373Z,74.35
2023-05-10T10:26:16.981Z,75.09
2023-05-10T10:28:52.851Z,75.00
2023-05-10T10:31:28.899Z,74.96
2023-05-10T10:34:02.944Z,75.18
2023-05-10T10:36:31.351Z,75.47
2023-05-10T10:39:04.072Z,75.10
2023-05-10T10:41:34.541Z,74.37
2023-05-10T10:44:30.284Z,74.16
2023-05-10T10:47:01.963Z,74.14
2023-05-10T10:49:30.069Z,74.01
2023-05-10T10:52:23.897Z,73.50
2023-05-10T10:54:56.662Z,73.66
2023-05-10T10:57:24.398Z,73.83
2023-05-10T10:59:53.542Z,74.60
2023-05-10T11:02:45.307Z,74.47
2023-05-10T11:05:46.447Z,74.76
2023-05-10T11:08:19.378Z,74.61
2023-05-10T11:11:08.875Z,74.59
2023-05-10T11:13:40.684Z,74.62
2023-05-10T11:16:14.884Z,73.94
2023-05-10T11:18:42.967Z,73.76
2023-05-10T11:21:11.581Z,74.02
2023-05-10T11:23:52.927Z,74.16
2023-05-10T11:26:24.116Z,73.93
2023-05-10T11:28:52.344Z,73.83
2023-05-10T11:31:22.503Z,74.51
2023-05-10T11:33:51.386Z,74.64
2023-05-10T11:36:20.938Z,74.49
2023-05-10T11:38:49.556Z,74.55
2023-05-10T11:41:19.692Z,75.26
2023-05-10T11:43:49.802Z,74.71
2023-05-10T11:46:18.473Z,74.48
2023-05-10T11:48:47.623Z,74.13
2023-05-10T11:51:15.710Z,74.08
2023-05-10T11:53:43.632Z,74.84
2023-05-10T11:56:12.361Z,74.02
2023-05-10T11:58:41.035Z,73.42
2023-05-10T12:01:10.151Z,72.70
2023-05-10T12:03:38.319Z,73.19
2023-05-10T12:06:09.083Z,72.80
2023-05-10T12:08:36.884Z,72.88
2023-05-10T12:11:08.915Z,72.43
2023-05-10T12:13:40.038Z,72.40
2023-05-10T12:16:15.459Z,71.64
2023-05-10T12:18:43.837Z,71.07
2023-05-10T12:21:13.713Z,70.78
2023-05-10T12:23:41.923Z,70.96
2023-05-10T12:26:11.727Z,70.85
2023-05-10T12:28:40.326Z,70.66
2023-05-10T12:31:08.656Z,70.83
2023-05-10T12:33:42.600Z,69.95
2023-05-10T12:36:11.518Z,69.58
2023-05-10T12:38:44.209Z,66.66
2023-05-10T12:41:13.998Z,69.84
2023-05-10T12:43:42.212Z,69.60
2023-05-10T12:46:10.782Z,69.26
2023-05-10T12:48:40.145Z,68.49
2023-05-10T12:51:10.293Z,68.16
2023-05-10T12:53:38.231Z,68.00
2023-05-10T12:56:08.292Z,68.65
2023-05-10T12:58:36.422Z,67.09
2023-05-10T13:01:05.734Z,65.91
2023-05-10T13:03:33.797Z,65.87
2023-05-10T13:06:01.583Z,65.69
2023-05-10T13:08:34.206Z,65.13
2023-05-10T13:11:02.740Z,64.48
2023-05-10T13:13:31.856Z,62.91
2023-05-10T13:15:59.632Z,62.35
2023-05-10T13:18:27.718Z,61.49
2023-05-10T13:20:56.759Z,60.66
2023-05-10T13:23:24.582Z,60.00
2023-05-10T13:25:52.352Z,60.69
2023-05-10T13:28:20.066Z,60.88
2023-05-10T13:30:49.222Z,59.92
2023-05-10T13:33:17.045Z,59.74
2023-05-10T13:35:44.965Z,60.47
2023-05-10T13:38:12.814Z,60.39
2023-05-10T13:40:40.604Z,60.64
2023-05-10T13:43:08.668Z,59.47
2023-05-10T13:45:36.753Z,60.19
2023-05-10T13:48:06.864Z,59.95
2023-05-10T13:50:34.884Z,60.58
2023-05-10T13:53:02.678Z,61.51
2023-05-10T13:55:31.748Z,60.86
2023-05-10T13:57:59.493Z,59.42
2023-05-10T14:00:28.141Z,59.86
2023-05-10T14:02:56.127Z,59.89
2023-05-10T14:05:26.487Z,58.21
2023-05-10T14:07:54.766Z,58.62
2023-05-10T14:10:22.620Z,59.85
2023-05-10T14:12:50.448Z,59.05
2023-05-10T14:15:18.349Z,58.55
2023-05-10T14:17:46.333Z,58.51
2023-05-10T14:20:14.094Z,59.02
2023-05-10T14:22:43.317Z,57.82
2023-05-10T14:25:11.441Z,57.07
2023-05-10T14:27:39.164Z,57.47
2023-05-10T14:30:08.288Z,56.65
2023-05-10T14:32:37.558Z,55.80
2023-05-10T14:35:06.930Z,55.83
2023-05-10T14:37:34.743Z,55.99
2023-05-10T14:40:05.393Z,55.42
2023-05-10T14:42:33.326Z,56.46
2023-05-10T14:45:01.076Z,55.22
2023-05-10T14:47:28.913Z,55.18
2023-05-10T14:49:56.684Z,56.61
2023-05-10T14:52:24.473Z,55.38
2023-05-10T14:54:52.315Z,56.38
2023-05-10T14:57:21.426Z,56.21
2023-05-10T14:59:49.171Z,56.69
2023-05-10T15:02:17.417Z,56.17
2023-05-10T15:04:45.603Z,56.87
2023-05-10T15:07:15.774Z,57.45
2023-05-10T15:09:43.542Z,57.72
2023-05-10T15:12:11.384Z,57.39
2023-05-10T15:14:40.529Z,57.80
2023-05-10T15:17:08.817Z,59.40
2023-05-10T15:19:37.027Z,59.59
2023-05-10T15:22:08.063Z,59.51
2023-05-10T15:24:36.955Z,59.11
2023-05-10T15:27:04.592Z,60.17
2023-05-10T15:29:32.535Z,60.82
2023-05-10T15:32:19.184Z,60.08
2023-05-10T15:34:46.958Z,60.42
2023-05-10T15:37:14.843Z,61.58
2023-05-10T15:39:42.590Z,61.81
2023-05-10T15:42:10.392Z,61.88
2023-05-10T15:44:39.415Z,62.63
2023-05-10T15:47:07.495Z,64.21
2023-05-10T15:49:36.826Z,64.54
2023-05-10T15:52:04.591Z,64.73
2023-05-10T15:54:32.369Z,65.58
2023-05-10T15:57:00.171Z,67.09
2023-05-10T15:59:27.935Z,67.91
2023-05-10T16:01:55.845Z,69.38
2023-05-10T16:04:24.128Z,69.37
2023-05-10T16:07:00.628Z,70.30
2023-05-10T16:09:28.409Z,70.93
2023-05-10T16:11:56.790Z,71.81
2023-05-10T16:14:24.801Z,72.42
2023-05-10T16:16:52.771Z,71.88
2023-05-10T16:19:20.860Z,72.53
2023-05-10T16:21:48.769Z,72.32
2023-05-10T16:24:17.979Z,72.47
2023-05-10T16:26:46.108Z,73.23
2023-05-10T16:29:13.904Z,72.81
2023-05-10T16:31:41.655Z,73.24
2023-05-10T16:34:09.533Z,73.54
2023-05-10T16:36:37.279Z,73.62
2023-05-10T16:39:05.244Z,74.14
2023-05-10T16:41:35.698Z,73.69
2023-05-10T16:44:03.745Z,74.44
2023-05-10T16:46:31.692Z,74.64
2023-05-10T16:48:59.815Z,74.14
2023-05-10T16:51:28.023Z,74.81
2023-05-10T16:53:56.034Z,74.39
2023-05-10T16:56:23.988Z,74.52
2023-05-10T16:58:54.000Z,74.87
2023-05-10T17:01:23.203Z,75.59
2023-05-10T17:03:52.182Z,75.54
2023-05-10T17:06:20.000Z,75.46
2023-05-10T17:08:48.896Z,75.57
2023-05-10T17:11:17.711Z,75.85
2023-05-10T17:13:46.524Z,76.17
2023-05-10T17:16:16.826Z,76.37
2023-05-10T17:18:46.066Z,76.05
2023-05-10T17:21:14.836Z,76.81
2023-05-10T17:23:43.481Z,76.36
2023-05-10T17:26:12.083Z,76.64
2023-05-10T17:28:41.210Z,76.64
2023-05-10T17:31:10.232Z,76.52
2023-05-10T17:33:40.524Z,77.12
2023-05-10T17:36:09.784Z,77.01
2023-05-10T17:38:38.227Z,77.73
2023-05-10T17:41:06.291Z,76.35
2023-05-10T17:43:34.121Z,77.17
2023-05-10T17:46:02.013Z,76.90
2023-05-10T17:48:29.767Z,77.04
2023-05-10T17:50:58.944Z,77.45
2023-05-10T17:53:27.007Z,77.20
2023-05-10T17:55:57.918Z,77.21
2023-05-10T17:58:25.994Z,77.73
2023-05-10T18:00:54.167Z,77.24
2023-05-10T18:03:22.268Z,77.84
2023-05-10T18:05:50.913Z,78.08
2023-05-10T18:08:22.883Z,78.53
2023-05-10T18:10:50.717Z,78.30
2023-05-10T18:13:18.561Z,78.78
2023-05-10T18:15:46.438Z,78.06
2023-05-10T18:18:14.271Z,78.53
2023-05-10T18:20:42.053Z,78.63
2023-05-10T18:23:09.799Z,78.19
2023-05-10T18:25:39.056Z,78.45
2023-05-10T18:28:08.117Z,78.03
2023-05-10T18:30:35.915Z,78.08
2023-05-10T18:33:03.824Z,78.94
2023-05-10T18:35:31.604Z,78.60
2023-05-10T18:37:59.489Z,79.23
2023-05-10T18:40:28.574Z,78.96
2023-05-10T18:42:57.609Z,79.86
2023-05-10T18:45:25.194Z,79.58
2023-05-10T18:47:53.062Z,78.79
2023-05-10T18:50:20.887Z,78.41
2023-05-10T18:52:49.017Z,78.93
2023-05-10T18:55:17.026Z,78.90
2023-05-10T18:57:45.347Z,78.84
2023-05-10T19:00:15.067Z,78.83
2023-05-10T19:02:43.051Z,78.68
2023-05-10T19:05:11.449Z,78.67
2023-05-10T19:07:40.584Z,79.63
2023-05-10T19:10:08.588Z,80.18
2023-05-10T19:12:37.466Z,79.38
2023-05-10T19:15:05.864Z,79.51
2023-05-10T19:17:36.464Z,79.88
2023-05-10T19:20:05.501Z,79.41
2023-05-10T19:22:45.426Z,79.60
2023-05-10T19:25:21.602Z,80.10
2023-05-10T19:27:49.470Z,79.62
2023-05-10T19:30:17.263Z,80.43
2023-05-10T19:32:46.409Z,80.29
2023-05-10T19:35:15.065Z,80.52
2023-05-10T19:37:46.094Z,80.32
2023-05-10T19:40:15.696Z,80.51
2023-05-10T19:42:43.499Z,80.17
2023-05-10T19:45:12.366Z,80.40
2023-05-10T19:47:41.919Z,80.33
2023-05-10T19:50:12.422Z,80.23
2023-05-10T19:52:40.457Z,80.77
2023-05-10T19:55:09.383Z,80.39
2023-05-10T19:57:37.362Z,80.91
2023-05-10T20:00:06.616Z,80.47
2023-05-10T20:02:34.467Z,81.25
2023-05-10T20:05:02.274Z,81.14
2023-05-10T20:07:31.380Z,81.29
2023-05-10T20:09:59.065Z,81.53
2023-05-10T20:12:27.884Z,80.81
2023-05-10T20:14:55.709Z,81.00
2023-05-10T20:17:23.586Z,81.42
2023-05-10T20:19:51.335Z,81.39
2023-05-10T20:22:19.065Z,80.98
2023-05-10T20:24:48.460Z,81.70
2023-05-10T20:27:16.300Z,81.63
2023-05-10T20:29:44.109Z,81.64
2023-05-10T20:32:11.899Z,81.59
2023-05-10T20:34:39.693Z,81.78
2023-05-10T20:37:08.116Z,81.60
2023-05-10T20:39:35.877Z,81.35
2023-05-10T20:42:05.480Z,81.48
2023-05-10T20:44:33.228Z,81.28
2023-05-10T20:47:01.031Z,81.87
2023-05-10T20:49:29.446Z,81.38
2023-05-10T20:51:57.346Z,81.18
2023-05-10T20:54:25.320Z,81.49
2023-05-10T20:56:53.100Z,81.91
2023-05-10T20:59:22.513Z,81.74
2023-05-10T21:01:50.430Z,82.04
2023-05-10T21:04:18.258Z,81.89
2023-05-10T21:06:46.779Z,82.57
2023-05-10T21:09:14.504Z,81.92
2023-05-10T21:11:42.286Z,82.54
2023-05-10T21:14:10.321Z,82.78
2023-05-10T21:16:39.506Z,82.66
2023-05-10T21:19:07.633Z,82.27
2023-05-10T21:21:35.691Z,82.94
2023-05-10T21:24:03.488Z,82.62
2023-05-10T21:26:31.354Z,82.80
2023-05-10T21:28:59.395Z,82.39
2023-05-10T21:31:27.163Z,82.41
2023-05-10T21:33:56.898Z,82.25
2023-05-10T21:36:26.242Z,82.44
2023-05-10T21:38:54.075Z,82.20
2023-05-10T21:41:21.923Z,82.83
2023-05-10T21:43:49.694Z,82.33
2023-05-10T21:46:17.546Z,82.85
2023-05-10T21:48:45.424Z,82.84
2023-05-10T21:51:15.123Z,83.00
2023-05-10T21:53:42.908Z,83.14
2023-05-10T21:56:10.659Z,83.26
2023-05-10T21:58:38.411Z,83.41
2023-05-10T22:01:06.452Z,82.59
2023-05-10T22:03:34.262Z,82.95
2023-05-10T22:06:02.101Z,82.73
2023-05-10T22:08:31.173Z,82.92
2023-05-10T22:10:59.013Z,83.16
2023-05-10T22:13:26.763Z,83.37
2023-05-10T22:15:54.509Z,83.39
2023-05-10T22:18:22.294Z,82.94
2023-05-10T22:20:50.171Z,83.33
2023-05-10T22:23:17.912Z,83.12
2023-05-10T22:25:47.040Z,83.29
2023-05-10T22:28:14.584Z,83.58
2023-05-10T22:30:42.859Z,83.45
2023-05-10T22:33:10.655Z,83.37
2023-05-10T22:35:38.405Z,82.74
2023-05-10T22:38:06.193Z,83.07
2023-05-10T22:40:33.884Z,83.15
2023-05-10T22:43:03.349Z,83.34
2023-05-10T22:45:31.153Z,83.28
2023-05-10T22:48:00.242Z,83.37
2023-05-10T22:50:27.866Z,83.04
2023-05-10T22:52:55.632Z,83.20
2023-05-10T22:55:23.497Z,82.90
2023-05-10T22:57:51.572Z,82.86
2023-05-10T23:00:21.113Z,82.95
2023-05-10T23:02:48.938Z,82.66
2023-05-10T23:05:16.967Z,82.97
2023-05-10T23:07:44.718Z,83.10
2023-05-10T23:10:12.599Z,82.61
2023-05-10T23:12:40.456Z,82.72
2023-05-10T23:15:09.576Z,83.02
2023-05-10T23:17:38.705Z,82.74
2023-05-10T23:20:06.848Z,83.14
2023-05-10T23:22:34.988Z,83.06
2023-05-10T23:25:03.007Z,82.50
2023-05-10T23:27:30.892Z,83.24
2023-05-10T23:29:58.746Z,83.50
2023-05-10T23:32:26.669Z,82.78
2023-05-10T23:34:55.785Z,83.25
2023-05-10T23:37:23.374Z,83.65
2023-05-10T23:39:52.110Z,83.04
2023-05-10T23:42:19.884Z,83.59
2023-05-10T23:44:47.790Z,83.68
2023-05-10T23:47:15.622Z,83.13
2023-05-10T23:49:43.349Z,83.68
2023-05-10T23:52:12.525Z,83.40
2023-05-10T23:54:40.102Z,83.57
2023-05-10T23:57:07.857Z,83.46
2023-05-10T23:59:35.591Z,83.57
